Time;durP1;ratioP1;P1;durP2;ratioP2;P2;SDS_P1;SDS_P2;PMS_P1;PMS_P2;Temp;Humidity;BMP_temperature;BMP_pressure;BME280_temperature;BME280_humidity;BME280_pressure;Samples;Min_cycle;Max_cycle;Signal;HPM_P1;HPM_P2
2021/10/17 00:01:27;;;;;;;54.28;31.98;;;;;;;;;;5026964;28;20032;-55
2021/10/17 00:03:53;;;;;;;57.92;32.42;;;;;;;;;;5027364;28;20025;-54
2021/10/17 00:06:27;;;;;;;62.15;34.15;;;;;;;;;;5025296;28;20144;-52
2021/10/17 00:08:53;;;;;;;65.70;38.88;;;;;;;;;;5026215;28;20030;-51
2021/10/17 00:11:19;;;;;;;64.63;39.20;;;;;;;;;;5026281;28;20926;-48
2021/10/17 00:13:46;;;;;;;65.55;38.13;;;;;;;;;;5028149;28;20021;-51
2021/10/17 00:16:12;;;;;;;71.72;41.75;;;;;;;;;;5027910;28;20036;-45
2021/10/17 00:18:38;;;;;;;71.82;40.88;;;;;;;;;;5024643;28;20132;-53
2021/10/17 00:21:04;;;;;;;67.85;37.15;;;;;;;;;;5050389;28;20052;-51
2021/10/17 00:23:30;;;;;;;59.50;35.53;;;;;;;;;;5056778;28;20028;-42
2021/10/17 00:25:56;;;;;;;63.75;37.60;;;;;;;;;;5056816;28;20068;-44
2021/10/17 00:28:25;;;;;;;63.17;38.45;;;;;;;;;;5056915;28;20032;-51
2021/10/17 00:30:53;;;;;;;65.53;38.92;;;;;;;;;;5056900;28;20017;-50
2021/10/17 00:33:22;;;;;;;64.75;37.53;;;;;;;;;;5056634;28;20037;-44
2021/10/17 00:35:48;;;;;;;76.20;44.08;;;;;;;;;;5056714;28;20021;-42
2021/10/17 00:38:14;;;;;;;81.95;41.90;;;;;;;;;;5056713;28;20037;-43
2021/10/17 00:40:40;;;;;;;67.45;40.28;;;;;;;;;;5056633;28;20091;-52
2021/10/17 00:43:09;;;;;;;66.28;38.70;;;;;;;;;;5056639;28;20032;-43
2021/10/17 00:45:35;;;;;;;66.50;38.50;;;;;;;;;;5056649;28;20501;-52
2021/10/17 00:48:04;;;;;;;63.95;38.00;;;;;;;;;;5056614;28;20017;-44
2021/10/17 00:50:30;;;;;;;65.57;36.80;;;;;;;;;;5056521;28;20055;-45
2021/10/17 00:52:58;;;;;;;65.32;38.65;;;;;;;;;;5056385;28;20039;-51
2021/10/17 00:55:28;;;;;;;67.25;39.53;;;;;;;;;;5056324;28;20025;-52
2021/10/17 00:58:01;;;;;;;66.88;39.33;;;;;;;;;;5056348;28;20040;-45
2021/10/17 01:00:30;;;;;;;61.85;37.25;;;;;;;;;;5056301;28;20104;-53
2021/10/17 01:02:56;;;;;;;55.72;36.47;;;;;;;;;;5056484;28;20511;-50
2021/10/17 01:05:22;;;;;;;58.88;33.72;;;;;;;;;;5056428;28;20389;-53
2021/10/17 01:07:49;;;;;;;66.95;37.28;;;;;;;;;;5056154;28;20021;-53
2021/10/17 01:10:16;;;;;;;62.45;38.28;;;;;;;;;;5056078;28;20071;-52
2021/10/17 01:12:42;;;;;;;73.47;38.50;;;;;;;;;;5055884;28;20098;-53
2021/10/17 01:15:08;;;;;;;75.10;42.33;;;;;;;;;;5056052;28;20478;-50
2021/10/17 01:17:39;;;;;;;77.28;43.25;;;;;;;;;;5055974;28;20393;-52
2021/10/17 01:20:06;;;;;;;76.13;41.83;;;;;;;;;;5055946;28;20521;-51
2021/10/17 01:22:33;;;;;;;69.15;38.75;;;;;;;;;;5055895;28;20064;-44
2021/10/17 01:24:59;;;;;;;67.55;37.90;;;;;;;;;;5055601;28;20076;-44
2021/10/17 01:27:25;;;;;;;59.88;35.80;;;;;;;;;;5055911;28;20021;-47
2021/10/17 01:29:51;;;;;;;64.50;37.40;;;;;;;;;;5055765;28;20021;-51
2021/10/17 01:32:17;;;;;;;58.78;35.60;;;;;;;;;;5055656;28;20037;-43
2021/10/17 01:34:43;;;;;;;58.15;33.15;;;;;;;;;;5055677;28;20057;-44
2021/10/17 01:37:09;;;;;;;55.13;32.05;;;;;;;;;;5055637;28;20048;-49
2021/10/17 01:39:36;;;;;;;54.08;33.80;;;;;;;;;;5055459;28;20462;-49
2021/10/17 01:42:02;;;;;;;54.30;33.65;;;;;;;;;;5055887;28;20416;-47
2021/10/17 01:44:32;;;;;;;57.00;32.75;;;;;;;;;;5055464;28;20062;-46
2021/10/17 01:46:59;;;;;;;51.05;32.17;;;;;;;;;;5054221;28;20033;-47
2021/10/17 01:49:25;;;;;;;54.65;33.50;;;;;;;;;;5055495;28;20025;-53
2021/10/17 01:51:51;;;;;;;49.38;30.90;;;;;;;;;;5055440;28;20055;-49
2021/10/17 01:54:17;;;;;;;56.28;33.08;;;;;;;;;;5055332;28;20033;-52
2021/10/17 01:56:43;;;;;;;52.88;31.23;;;;;;;;;;5055322;28;20439;-51
2021/10/17 01:59:12;;;;;;;48.70;30.63;;;;;;;;;;5055513;28;20021;-48
2021/10/17 02:01:38;;;;;;;53.63;30.73;;;;;;;;;;5055313;28;20024;-52
2021/10/17 02:04:04;;;;;;;49.22;30.55;;;;;;;;;;5055451;28;20033;-49
2021/10/17 02:06:30;;;;;;;43.22;25.55;;;;;;;;;;5055083;28;20032;-53
2021/10/17 02:08:57;;;;;;;45.35;27.88;;;;;;;;;;5055103;28;20477;-45
2021/10/17 02:11:26;;;;;;;44.63;29.27;;;;;;;;;;5055051;28;20117;-52
2021/10/17 02:13:52;;;;;;;38.70;26.08;;;;;;;;;;5055218;28;20059;-44
2021/10/17 02:16:18;;;;;;;45.03;27.67;;;;;;;;;;5055070;28;20020;-47
2021/10/17 02:18:44;;;;;;;43.88;27.33;;;;;;;;;;5053840;28;20083;-52
2021/10/17 02:21:10;;;;;;;40.67;26.13;;;;;;;;;;5054858;28;20031;-52
2021/10/17 02:23:36;;;;;;;34.38;22.30;;;;;;;;;;5054531;28;20025;-44
2021/10/17 02:26:03;;;;;;;43.22;25.38;;;;;;;;;;5054811;28;20032;-44
2021/10/17 02:28:32;;;;;;;41.00;24.30;;;;;;;;;;5054672;28;20466;-44
2021/10/17 02:30:58;;;;;;;38.20;24.55;;;;;;;;;;5054589;28;20507;-52
2021/10/17 02:33:25;;;;;;;41.50;25.30;;;;;;;;;;5054723;28;20389;-44
2021/10/17 02:35:51;;;;;;;43.30;26.50;;;;;;;;;;5054577;28;20033;-44
2021/10/17 02:38:17;;;;;;;37.22;23.10;;;;;;;;;;5054346;28;20428;-45
2021/10/17 02:40:43;;;;;;;41.72;25.33;;;;;;;;;;5054436;28;20450;-44
2021/10/17 02:43:09;;;;;;;42.10;27.10;;;;;;;;;;5053966;28;20111;-53
2021/10/17 02:45:36;;;;;;;37.03;23.52;;;;;;;;;;5054748;28;20021;-52
2021/10/17 02:48:02;;;;;;;42.47;25.60;;;;;;;;;;5054533;28;20086;-48
2021/10/17 02:50:28;;;;;;;33.38;22.13;;;;;;;;;;5054382;28;20048;-53
2021/10/17 02:52:54;;;;;;;34.45;21.75;;;;;;;;;;5054088;28;20041;-52
2021/10/17 02:55:20;;;;;;;38.22;25.48;;;;;;;;;;5054141;28;20025;-47
2021/10/17 02:57:46;;;;;;;36.20;25.17;;;;;;;;;;5054488;28;20047;-43
2021/10/17 03:00:13;;;;;;;39.05;22.55;;;;;;;;;;5054188;28;20096;-52
2021/10/17 03:02:39;;;;;;;40.33;23.33;;;;;;;;;;5054167;28;20032;-49
2021/10/17 03:05:05;;;;;;;35.60;23.42;;;;;;;;;;5054457;28;20103;-53
2021/10/17 03:07:31;;;;;;;34.53;21.65;;;;;;;;;;5054621;28;20500;-54
2021/10/17 03:10:00;;;;;;;33.78;22.35;;;;;;;;;;5054049;28;20031;-53
2021/10/17 03:12:26;;;;;;;35.28;22.52;;;;;;;;;;5054083;28;20037;-53
2021/10/17 03:14:52;;;;;;;33.33;21.23;;;;;;;;;;5054212;28;20021;-52
2021/10/17 03:17:18;;;;;;;35.05;22.20;;;;;;;;;;5053980;28;20052;-54
2021/10/17 03:19:44;;;;;;;38.58;24.40;;;;;;;;;;5054222;28;20025;-53
2021/10/17 03:22:10;;;;;;;35.72;23.20;;;;;;;;;;5053820;28;20067;-54
2021/10/17 03:24:36;;;;;;;41.25;25.52;;;;;;;;;;5053559;28;20049;-54
2021/10/17 03:27:02;;;;;;;38.60;24.20;;;;;;;;;;5053626;28;20067;-54
2021/10/17 03:29:28;;;;;;;36.55;23.10;;;;;;;;;;5053699;28;20039;-53
2021/10/17 03:31:54;;;;;;;37.17;23.65;;;;;;;;;;5053663;28;20104;-54
2021/10/17 03:34:23;;;;;;;35.40;23.77;;;;;;;;;;5053549;28;20036;-54
2021/10/17 03:36:49;;;;;;;38.97;23.77;;;;;;;;;;5053802;28;20055;-53
2021/10/17 03:39:15;;;;;;;34.60;22.02;;;;;;;;;;5053338;28;20029;-52
2021/10/17 03:41:41;;;;;;;37.03;24.23;;;;;;;;;;5053589;28;20028;-54
2021/10/17 03:44:07;;;;;;;42.63;25.05;;;;;;;;;;5053521;28;20025;-52
2021/10/17 03:46:33;;;;;;;40.53;23.70;;;;;;;;;;5053436;28;20487;-53
2021/10/17 03:49:01;;;;;;;40.80;23.42;;;;;;;;;;5053549;28;20048;-53
2021/10/17 03:51:28;;;;;;;38.58;23.23;;;;;;;;;;5053370;28;20078;-52
2021/10/17 03:53:54;;;;;;;39.40;22.95;;;;;;;;;;5052317;28;20124;-53
2021/10/17 03:56:20;;;;;;;33.40;21.92;;;;;;;;;;5053284;28;20477;-53
2021/10/17 03:58:46;;;;;;;41.45;24.38;;;;;;;;;;5053328;28;20376;-53
2021/10/17 04:01:12;;;;;;;36.00;23.58;;;;;;;;;;5053244;28;20067;-52
2021/10/17 04:03:38;;;;;;;43.20;23.52;;;;;;;;;;5053381;28;20029;-53
2021/10/17 04:06:07;;;;;;;44.17;25.08;;;;;;;;;;5053124;28;20436;-51
2021/10/17 04:08:33;;;;;;;44.85;25.88;;;;;;;;;;5053205;28;20045;-52
2021/10/17 04:10:59;;;;;;;40.63;24.67;;;;;;;;;;5053176;28;20021;-52
2021/10/17 04:13:25;;;;;;;43.13;24.88;;;;;;;;;;5053076;28;20037;-52
2021/10/17 04:15:51;;;;;;;36.42;24.23;;;;;;;;;;5053219;28;20059;-52
2021/10/17 04:18:17;;;;;;;48.05;27.95;;;;;;;;;;5053143;28;20063;-53
2021/10/17 04:20:43;;;;;;;44.65;27.30;;;;;;;;;;5053163;28;20029;-53
2021/10/17 04:23:09;;;;;;;42.55;25.10;;;;;;;;;;5053139;28;20025;-53
2021/10/17 04:25:35;;;;;;;43.95;25.58;;;;;;;;;;5052760;28;20075;-53
2021/10/17 04:28:04;;;;;;;44.72;26.35;;;;;;;;;;5053002;28;20028;-52
2021/10/17 04:30:30;;;;;;;40.58;26.67;;;;;;;;;;5052975;28;20028;-52
2021/10/17 04:32:56;;;;;;;43.03;26.23;;;;;;;;;;5052975;28;20381;-51
2021/10/17 04:35:22;;;;;;;38.22;24.85;;;;;;;;;;5053054;28;20376;-51
2021/10/17 04:37:48;;;;;;;46.25;25.50;;;;;;;;;;5052914;28;20086;-52
2021/10/17 04:40:15;;;;;;;43.85;26.10;;;;;;;;;;5052731;28;20032;-52
2021/10/17 04:42:41;;;;;;;45.35;26.65;;;;;;;;;;5053029;28;20029;-52
2021/10/17 04:45:07;;;;;;;48.90;28.33;;;;;;;;;;5052936;28;20021;-52
2021/10/17 04:47:36;;;;;;;47.67;27.35;;;;;;;;;;5052979;28;20028;-53
2021/10/17 04:50:02;;;;;;;47.28;29.38;;;;;;;;;;5052965;28;20017;-53
2021/10/17 04:52:28;;;;;;;50.15;28.95;;;;;;;;;;5052633;28;20056;-53
2021/10/17 04:54:57;;;;;;;48.42;28.35;;;;;;;;;;5052562;28;20053;-52
2021/10/17 04:57:23;;;;;;;51.15;29.75;;;;;;;;;;5052734;28;20054;-52
2021/10/17 04:59:49;;;;;;;67.63;39.88;;;;;;;;;;5052637;28;20021;-47
2021/10/17 05:02:15;;;;;;;65.30;40.95;;;;;;;;;;5052838;28;20444;-53
2021/10/17 05:04:41;;;;;;;61.95;40.03;;;;;;;;;;5053356;28;20101;-51
2021/10/17 05:07:07;;;;;;;64.97;37.85;;;;;;;;;;5056371;28;20105;-52
2021/10/17 05:09:33;;;;;;;58.10;33.97;;;;;;;;;;5056042;28;20087;-47
2021/10/17 05:12:02;;;;;;;60.85;34.60;;;;;;;;;;5056106;28;20029;-53
2021/10/17 05:14:28;;;;;;;58.60;35.22;;;;;;;;;;5056111;28;20405;-52
2021/10/17 05:16:56;;;;;;;66.60;34.15;;;;;;;;;;5056248;28;20074;-46
2021/10/17 05:19:22;;;;;;;61.95;33.42;;;;;;;;;;5056061;28;20013;-46
2021/10/17 05:21:49;;;;;;;52.83;32.58;;;;;;;;;;5055967;28;20033;-52
2021/10/17 05:24:15;;;;;;;53.80;31.10;;;;;;;;;;5055721;28;20081;-46
2021/10/17 05:26:41;;;;;;;54.97;34.10;;;;;;;;;;5056038;28;20025;-44
2021/10/17 05:29:07;;;;;;;70.28;37.55;;;;;;;;;;5055927;28;20064;-44
2021/10/17 05:31:34;;;;;;;56.88;32.03;;;;;;;;;;5055979;28;20432;-53
2021/10/17 05:34:05;;;;;;;51.55;28.38;;;;;;;;;;5055716;28;20536;-45
2021/10/17 05:36:31;;;;;;;49.30;28.75;;;;;;;;;;5055722;28;20148;-44
2021/10/17 05:38:57;;;;;;;44.92;26.83;;;;;;;;;;5055546;28;20508;-51
2021/10/17 05:41:25;;;;;;;37.10;22.23;;;;;;;;;;5055665;28;20024;-53
2021/10/17 05:43:52;;;;;;;38.10;22.67;;;;;;;;;;5055641;28;20154;-45
2021/10/17 05:46:18;;;;;;;39.35;23.52;;;;;;;;;;5055697;28;20372;-53
2021/10/17 05:48:44;;;;;;;44.78;24.67;;;;;;;;;;5055724;28;20025;-44
2021/10/17 05:51:10;;;;;;;51.33;28.50;;;;;;;;;;5055502;28;20082;-45
2021/10/17 05:53:37;;;;;;;44.53;26.63;;;;;;;;;;5055399;28;20116;-44
2021/10/17 05:56:03;;;;;;;46.90;28.90;;;;;;;;;;5055325;28;20024;-45
2021/10/17 05:58:29;;;;;;;57.67;33.05;;;;;;;;;;5055430;28;20480;-53
2021/10/17 06:00:55;;;;;;;61.53;32.58;;;;;;;;;;5055382;28;20018;-53
2021/10/17 06:03:21;;;;;;;79.25;41.45;;;;;;;;;;5055206;28;20465;-51
2021/10/17 06:05:59;;;;;;;78.05;41.15;;;;;;;;;;5055138;28;20033;-45
2021/10/17 06:08:25;;;;;;;53.95;32.28;;;;;;;;;;5055129;28;20393;-45
2021/10/17 06:10:52;;;;;;;48.38;28.33;;;;;;;;;;5055129;28;20021;-52
2021/10/17 06:13:18;;;;;;;48.70;28.60;;;;;;;;;;5053675;28;20045;-51
2021/10/17 06:15:44;;;;;;;40.00;24.63;;;;;;;;;;5054537;28;20063;-50
2021/10/17 06:18:11;;;;;;;35.95;20.58;;;;;;;;;;5054415;28;20032;-55
2021/10/17 06:20:37;;;;;;;36.60;19.92;;;;;;;;;;5055014;28;20023;-52
2021/10/17 06:23:03;;;;;;;27.02;17.52;;;;;;;;;;5054928;28;20060;-53
2021/10/17 06:25:29;;;;;;;29.88;17.90;;;;;;;;;;5054692;28;20060;-54
2021/10/17 06:27:55;;;;;;;33.42;21.65;;;;;;;;;;5054940;28;20082;-52
2021/10/17 06:30:22;;;;;;;36.78;22.20;;;;;;;;;;5054871;28;20025;-51
2021/10/17 06:32:48;;;;;;;50.63;29.67;;;;;;;;;;5054441;28;20044;-50
2021/10/17 06:35:14;;;;;;;40.28;23.77;;;;;;;;;;5054195;28;20021;-51
2021/10/17 06:37:41;;;;;;;39.90;19.67;;;;;;;;;;5054156;28;20025;-59
2021/10/17 06:40:07;;;;;;;31.70;18.15;;;;;;;;;;5053756;28;20013;-52
2021/10/17 06:42:33;;;;;;;30.98;17.52;;;;;;;;;;5054042;28;20021;-50
2021/10/17 06:44:59;;;;;;;42.38;18.70;;;;;;;;;;5053966;28;20032;-52
2021/10/17 06:47:25;;;;;;;31.08;17.75;;;;;;;;;;5053836;28;20029;-45
2021/10/17 06:49:51;;;;;;;30.80;18.27;;;;;;;;;;5053858;28;20020;-47
2021/10/17 06:52:25;;;;;;;25.70;15.30;;;;;;;;;;5053574;28;20035;-53
2021/10/17 06:54:51;;;;;;;23.92;15.02;;;;;;;;;;5052968;28;20029;-44
2021/10/17 06:57:17;;;;;;;22.10;16.10;;;;;;;;;;5052732;28;20036;-44
2021/10/17 06:59:43;;;;;;;26.13;15.63;;;;;;;;;;5050930;28;20470;-53
2021/10/17 07:02:11;;;;;;;24.65;14.60;;;;;;;;;;5053517;28;20044;-45
2021/10/17 07:04:38;;;;;;;30.50;19.75;;;;;;;;;;5053345;28;20052;-53
2021/10/17 07:07:04;;;;;;;33.97;19.80;;;;;;;;;;5050822;28;20487;-53
2021/10/17 07:09:30;;;;;;;35.00;18.30;;;;;;;;;;5053083;28;20071;-52
2021/10/17 07:12:01;;;;;;;28.15;16.25;;;;;;;;;;5053374;28;20017;-44
2021/10/17 07:14:29;;;;;;;30.08;16.60;;;;;;;;;;5049680;28;20088;-52
2021/10/17 07:16:56;;;;;;;21.80;12.27;;;;;;;;;;5053178;28;20025;-44
2021/10/17 07:19:22;;;;;;;25.17;13.75;;;;;;;;;;5053262;28;20029;-45
2021/10/17 07:21:48;;;;;;;27.52;14.55;;;;;;;;;;5053273;28;20052;-52
2021/10/17 07:24:14;;;;;;;31.58;14.93;;;;;;;;;;5052919;28;20048;-53
2021/10/17 07:26:45;;;;;;;29.08;14.57;;;;;;;;;;5053294;28;20444;-48
2021/10/17 07:29:11;;;;;;;29.50;14.75;;;;;;;;;;5052969;28;20013;-45
2021/10/17 07:31:40;;;;;;;28.33;14.10;;;;;;;;;;5053113;28;20338;-52
2021/10/17 07:34:06;;;;;;;21.60;13.25;;;;;;;;;;5050282;28;20056;-50
2021/10/17 07:36:32;;;;;;;22.88;14.10;;;;;;;;;;5052813;28;20040;-44
2021/10/17 07:38:58;;;;;;;37.42;17.13;;;;;;;;;;5052900;28;20029;-45
2021/10/17 07:41:27;;;;;;;31.50;16.23;;;;;;;;;;5052682;28;20025;-46
2021/10/17 07:43:53;;;;;;;27.38;14.50;;;;;;;;;;5053021;28;20021;-54
2021/10/17 07:46:19;;;;;;;29.40;15.93;;;;;;;;;;5053044;28;20564;-53
2021/10/17 07:48:45;;;;;;;25.98;16.17;;;;;;;;;;5052976;28;20099;-55
2021/10/17 07:51:15;;;;;;;25.10;15.52;;;;;;;;;;5053059;28;20024;-52
2021/10/17 07:53:42;;;;;;;23.25;14.23;;;;;;;;;;5052791;28;20068;-49
2021/10/17 07:56:08;;;;;;;26.92;16.27;;;;;;;;;;5052748;28;20029;-52
2021/10/17 07:58:34;;;;;;;27.40;16.90;;;;;;;;;;5052744;28;20049;-53
2021/10/17 08:01:02;;;;;;;29.98;17.67;;;;;;;;;;5052726;28;20092;-47
2021/10/17 08:03:28;;;;;;;29.38;17.48;;;;;;;;;;5051420;28;20028;-53
2021/10/17 08:05:54;;;;;;;19.77;13.43;;;;;;;;;;5052539;28;20485;-54
2021/10/17 08:08:21;;;;;;;19.85;13.25;;;;;;;;;;5052651;28;20025;-53
2021/10/17 08:10:47;;;;;;;25.13;14.45;;;;;;;;;;5052489;28;20043;-54
2021/10/17 08:13:13;;;;;;;23.42;14.73;;;;;;;;;;5052632;28;20032;-52
2021/10/17 08:15:41;;;;;;;21.38;14.68;;;;;;;;;;5052739;28;20028;-54
2021/10/17 08:18:10;;;;;;;24.20;15.48;;;;;;;;;;5052891;28;20036;-52
2021/10/17 08:20:36;;;;;;;36.53;22.15;;;;;;;;;;5052865;28;20021;-55
2021/10/17 08:23:02;;;;;;;46.25;28.73;;;;;;;;;;5052063;28;20033;-53
2021/10/17 08:25:31;;;;;;;59.15;19.88;;;;;;;;;;5052069;28;20471;-54
2021/10/17 08:27:57;;;;;;;199.10;83.63;;;;;;;;;;5052355;28;20396;-56
2021/10/17 08:30:23;;;;;;;47.67;23.42;;;;;;;;;;5052718;28;20373;-51
2021/10/17 08:32:52;;;;;;;317.48;273.50;;;;;;;;;;5052280;28;20534;-53
2021/10/17 08:35:18;;;;;;;41.95;28.05;;;;;;;;;;5052719;28;20037;-56
2021/10/17 08:37:45;;;;;;;52.13;31.73;;;;;;;;;;5052752;28;20354;-53
2021/10/17 08:40:16;;;;;;;58.67;35.33;;;;;;;;;;5054330;28;20108;-55
2021/10/17 08:42:42;;;;;;;;;;;;;;;;;;5057156;28;20025;-56
2021/10/17 08:45:11;;;;;;;119.43;77.65;;;;;;;;;;5056198;28;20032;-52
2021/10/17 08:47:37;;;;;;;68.07;32.53;;;;;;;;;;5056681;28;20036;-51
2021/10/17 08:50:04;;;;;;;136.00;71.82;;;;;;;;;;5056505;28;20021;-52
2021/10/17 08:52:30;;;;;;;59.33;30.92;;;;;;;;;;5056341;28;20025;-52
2021/10/17 08:54:56;;;;;;;57.63;27.27;;;;;;;;;;5056470;28;20044;-49
2021/10/17 08:57:24;;;;;;;59.35;41.88;;;;;;;;;;5056387;28;20063;-52
2021/10/17 08:59:51;;;;;;;112.63;61.17;;;;;;;;;;5056336;28;20055;-59
2021/10/17 09:02:18;;;;;;;91.80;56.13;;;;;;;;;;5056357;28;20036;-48
2021/10/17 09:05:00;;;;;;;35.90;20.52;;;;;;;;;;5055582;28;20064;-49
2021/10/17 09:07:26;;;;;;;36.58;21.23;;;;;;;;;;5054442;28;20017;-49
2021/10/17 09:10:12;;;;;;;31.60;18.88;;;;;;;;;;5050927;28;20025;-49
2021/10/17 09:12:39;;;;;;;33.58;19.45;;;;;;;;;;5041447;28;20497;-47
2021/10/17 09:15:26;;;;;;;30.38;15.77;;;;;;;;;;5039047;28;20512;-49
2021/10/17 09:18:11;;;;;;;39.55;22.20;;;;;;;;;;5038921;28;20075;-49
2021/10/17 09:20:49;;;;;;;49.40;27.77;;;;;;;;;;5030934;28;20553;-49
2021/10/17 09:23:15;;;;;;;40.05;23.95;;;;;;;;;;5026435;28;20036;-48
2021/10/17 09:25:41;;;;;;;47.08;18.75;;;;;;;;;;5025311;28;20099;-49
2021/10/17 09:28:14;;;;;;;39.65;14.45;;;;;;;;;;5025100;28;20035;-49
2021/10/17 09:30:40;;;;;;;29.05;16.55;;;;;;;;;;5025204;28;20025;-49
2021/10/17 09:33:10;;;;;;;32.50;18.27;;;;;;;;;;5025079;28;20026;-49
2021/10/17 09:35:37;;;;;;;38.13;24.53;;;;;;;;;;5026709;28;20128;-49
2021/10/17 09:38:03;;;;;;;40.03;23.48;;;;;;;;;;5025401;28;20021;-49
2021/10/17 09:40:32;;;;;;;33.35;17.92;;;;;;;;;;5024928;28;20370;-49
2021/10/17 09:43:12;;;;;;;49.22;23.30;;;;;;;;;;5025510;28;20022;-49
2021/10/17 09:45:39;;;;;;;42.15;23.85;;;;;;;;;;5025322;28;20064;-49
2021/10/17 09:48:06;;;;;;;31.52;19.02;;;;;;;;;;5025167;28;20803;-49
2021/10/17 09:50:34;;;;;;;23.23;13.45;;;;;;;;;;5024490;28;20025;-48
2021/10/17 09:53:07;;;;;;;43.33;21.27;;;;;;;;;;5025032;28;20189;-48
2021/10/17 09:55:33;;;;;;;46.22;20.70;;;;;;;;;;5053960;28;20042;-49
2021/10/17 09:58:04;;;;;;;29.30;12.90;;;;;;;;;;5055476;28;20044;-49
2021/10/17 10:00:34;;;;;;;40.40;17.88;;;;;;;;;;5055158;28;20091;-49
2021/10/17 10:03:03;;;;;;;26.75;14.80;;;;;;;;;;5055227;28;20017;-49
2021/10/17 10:05:29;;;;;;;25.50;14.70;;;;;;;;;;5055356;28;20029;-49
2021/10/17 10:08:01;;;;;;;29.15;18.50;;;;;;;;;;5055096;28;20100;-49
2021/10/17 10:10:28;;;;;;;30.75;18.33;;;;;;;;;;5055076;28;20473;-50
2021/10/17 10:12:57;;;;;;;19.38;11.93;;;;;;;;;;5055083;28;20051;-49
2021/10/17 10:15:24;;;;;;;25.08;14.00;;;;;;;;;;5054895;28;20059;-49
2021/10/17 10:17:50;;;;;;;22.83;13.18;;;;;;;;;;5055018;28;20021;-49
2021/10/17 10:20:16;;;;;;;43.08;19.60;;;;;;;;;;5054840;28;20036;-49
2021/10/17 10:22:44;;;;;;;39.70;20.70;;;;;;;;;;5054822;28;20442;-49
2021/10/17 10:25:10;;;;;;;22.67;11.57;;;;;;;;;;5054583;28;20045;-49
2021/10/17 10:27:37;;;;;;;24.13;14.10;;;;;;;;;;5054796;28;20075;-49
2021/10/17 10:30:20;;;;;;;24.20;13.23;;;;;;;;;;5054569;28;20096;-50
2021/10/17 10:33:04;;;;;;;22.20;11.20;;;;;;;;;;5054787;28;20094;-50
2021/10/17 10:35:30;;;;;;;39.10;14.50;;;;;;;;;;5054658;28;20041;-50
2021/10/17 10:37:56;;;;;;;18.20;11.52;;;;;;;;;;5054531;28;20029;-50
2021/10/17 10:40:25;;;;;;;23.65;13.95;;;;;;;;;;5054425;28;20385;-50
2021/10/17 10:42:52;;;;;;;24.23;14.48;;;;;;;;;;5054477;28;20495;-50
2021/10/17 10:45:24;;;;;;;15.52;10.90;;;;;;;;;;5054747;28;20404;-52
2021/10/17 10:48:09;;;;;;;18.77;10.88;;;;;;;;;;5054276;28;20029;-53
2021/10/17 10:50:37;;;;;;;167.45;112.88;;;;;;;;;;5054512;28;20029;-56
2021/10/17 10:53:05;;;;;;;22.30;15.00;;;;;;;;;;5052911;28;20448;-55
2021/10/17 10:55:53;;;;;;;48.05;29.45;;;;;;;;;;5054142;28;20501;-51
2021/10/17 10:58:26;;;;;;;89.78;55.10;;;;;;;;;;5034191;28;20045;-52
2021/10/17 11:00:53;;;;;;;92.28;55.17;;;;;;;;;;5034381;28;20124;-57
2021/10/17 11:03:19;;;;;;;66.60;38.47;;;;;;;;;;5033727;28;20462;-58
2021/10/17 11:06:04;;;;;;;36.38;20.65;;;;;;;;;;5033973;28;20052;-61
2021/10/17 11:08:31;;;;;;;28.48;16.67;;;;;;;;;;5040482;28;20032;-55
2021/10/17 11:10:57;;;;;;;48.28;30.40;;;;;;;;;;5053258;28;20113;-51
2021/10/17 11:13:42;;;;;;;18.33;11.55;;;;;;;;;;5053496;28;20025;-51
2021/10/17 11:16:28;;;;;;;43.38;25.52;;;;;;;;;;5053828;28;20461;-58
2021/10/17 11:19:00;;;;;;;17.60;11.88;;;;;;;;;;5053075;28;20081;-61
2021/10/17 11:21:31;;;;;;;19.30;10.27;;;;;;;;;;5053129;28;20074;-52
2021/10/17 11:23:57;;;;;;;21.90;12.90;;;;;;;;;;5050511;28;20366;-51
2021/10/17 11:26:23;;;;;;;18.17;9.90;;;;;;;;;;5053114;28;20017;-50
2021/10/17 11:28:50;;;;;;;18.30;13.23;;;;;;;;;;5053413;28;20107;-56
2021/10/17 11:31:19;;;;;;;30.85;17.38;;;;;;;;;;5053074;28;20116;-53
2021/10/17 11:33:46;;;;;;;19.55;11.10;;;;;;;;;;5053037;28;20025;-51
2021/10/17 11:36:13;;;;;;;45.15;27.40;;;;;;;;;;5052763;28;20035;-56
2021/10/17 11:38:40;;;;;;;23.10;15.45;;;;;;;;;;5050535;28;20043;-50
2021/10/17 11:41:07;;;;;;;40.17;22.42;;;;;;;;;;5052937;28;20077;-58
2021/10/17 11:43:35;;;;;;;23.25;13.35;;;;;;;;;;5052920;28;20021;-53
2021/10/17 11:46:02;;;;;;;39.20;24.00;;;;;;;;;;5052697;28;20040;-51
2021/10/17 11:48:28;;;;;;;69.82;36.78;;;;;;;;;;5053278;28;20708;-56
2021/10/17 11:50:55;;;;;;;232.10;128.23;;;;;;;;;;5053104;28;20104;-51
2021/10/17 11:53:21;;;;;;;25.45;15.50;;;;;;;;;;5053301;28;20021;-51
2021/10/17 11:55:52;;;;;;;72.13;44.42;;;;;;;;;;5052447;28;20017;-50
2021/10/17 11:58:18;;;;;;;;;;;;;;;;;;5051038;28;20489;-51
2021/10/17 12:00:46;;;;;;;14.00;9.68;;;;;;;;;;5052823;28;19916;-51
2021/10/17 12:03:12;;;;;;;30.17;17.73;;;;;;;;;;5051944;28;20477;-51
2021/10/17 12:05:43;;;;;;;30.20;18.02;;;;;;;;;;5053258;28;20384;-55
2021/10/17 12:08:19;;;;;;;30.40;17.35;;;;;;;;;;5053544;28;20096;-55
2021/10/17 12:10:54;;;;;;;48.08;30.50;;;;;;;;;;5053027;28;20049;-57
2021/10/17 12:13:20;;;;;;;33.42;18.95;;;;;;;;;;5052959;28;20025;-55
2021/10/17 12:15:49;;;;;;;22.98;15.85;;;;;;;;;;5035223;28;20029;-50
2021/10/17 12:18:16;;;;;;;39.83;26.75;;;;;;;;;;5029900;28;20171;-53
2021/10/17 12:20:42;;;;;;;67.88;42.33;;;;;;;;;;5029687;28;20036;-50
2021/10/17 12:23:08;;;;;;;35.25;24.30;;;;;;;;;;5029314;28;20057;-51
2021/10/17 12:25:34;;;;;;;60.05;36.70;;;;;;;;;;5030121;28;21525;-50
2021/10/17 12:28:01;;;;;;;13.35;9.10;;;;;;;;;;5030217;28;20112;-50
2021/10/17 12:30:33;;;;;;;14.90;8.40;;;;;;;;;;5030523;28;20033;-50
2021/10/17 12:33:00;;;;;;;23.30;11.88;;;;;;;;;;5029921;28;20041;-51
2021/10/17 12:35:36;;;;;;;23.88;16.08;;;;;;;;;;5029306;28;20384;-50
2021/10/17 12:38:05;;;;;;;23.42;14.57;;;;;;;;;;5029706;28;20747;-54
2021/10/17 12:40:32;;;;;;;32.72;18.70;;;;;;;;;;5029623;28;20512;-51
2021/10/17 12:43:04;;;;;;;27.40;16.48;;;;;;;;;;5029597;28;20503;-51
2021/10/17 12:45:32;;;;;;;29.40;18.15;;;;;;;;;;5029197;28;20024;-49
2021/10/17 12:47:58;;;;;;;20.23;12.05;;;;;;;;;;5029393;28;20055;-50
2021/10/17 12:50:25;;;;;;;19.83;11.98;;;;;;;;;;5029765;28;20039;-50
2021/10/17 12:52:56;;;;;;;26.55;16.85;;;;;;;;;;5029446;28;20132;-50
2021/10/17 12:55:22;;;;;;;18.17;11.47;;;;;;;;;;5029154;28;20040;-51
2021/10/17 12:58:01;;;;;;;30.75;19.17;;;;;;;;;;5029490;28;20528;-50
2021/10/17 13:00:27;;;;;;;19.13;9.60;;;;;;;;;;5029149;28;20354;-51
2021/10/17 13:02:53;;;;;;;24.33;14.57;;;;;;;;;;5029035;28;20029;-51
2021/10/17 13:05:19;;;;;;;14.00;8.25;;;;;;;;;;5029525;28;20148;-51
2021/10/17 13:07:45;;;;;;;52.30;31.27;;;;;;;;;;5028980;28;20308;-51
2021/10/17 13:10:15;;;;;;;49.35;28.67;;;;;;;;;;5029136;28;21066;-50
2021/10/17 13:12:53;;;;;;;15.82;10.57;;;;;;;;;;5028663;28;20037;-51
2021/10/17 13:15:29;;;;;;;13.20;8.63;;;;;;;;;;5029082;28;20163;-50
2021/10/17 13:18:06;;;;;;;13.85;8.57;;;;;;;;;;5028925;28;20071;-50
2021/10/17 13:20:33;;;;;;;13.48;9.02;;;;;;;;;;5028872;28;20090;-51
2021/10/17 13:23:00;;;;;;;17.50;10.93;;;;;;;;;;5028859;28;20032;-49
2021/10/17 13:25:27;;;;;;;15.65;8.70;;;;;;;;;;5028683;28;20085;-52
2021/10/17 13:27:59;;;;;;;9.32;7.60;;;;;;;;;;5028866;28;20496;-50
2021/10/17 13:30:25;;;;;;;12.90;7.78;;;;;;;;;;5028688;28;20480;-49
2021/10/17 13:32:51;;;;;;;11.68;7.68;;;;;;;;;;5028580;28;20032;-50
2021/10/17 13:35:18;;;;;;;16.48;8.10;;;;;;;;;;5028461;28;20045;-50
2021/10/17 13:37:44;;;;;;;14.82;8.35;;;;;;;;;;5028041;28;20021;-50
2021/10/17 13:40:11;;;;;;;29.13;19.73;;;;;;;;;;5028529;28;20036;-51
2021/10/17 13:42:40;;;;;;;16.58;10.70;;;;;;;;;;5028392;28;20059;-49
2021/10/17 13:45:07;;;;;;;13.38;9.32;;;;;;;;;;5028578;28;20476;-51
2021/10/17 13:47:33;;;;;;;11.27;7.60;;;;;;;;;;5028700;28;20903;-51
2021/10/17 13:49:59;;;;;;;17.67;9.48;;;;;;;;;;5027844;28;20438;-49
2021/10/17 13:52:26;;;;;;;27.15;10.05;;;;;;;;;;5028093;28;20107;-53
2021/10/17 13:54:52;;;;;;;15.68;8.32;;;;;;;;;;5028075;28;20503;-51
2021/10/17 13:57:19;;;;;;;13.48;6.95;;;;;;;;;;5027084;28;20037;-50
2021/10/17 13:59:45;;;;;;;14.88;8.13;;;;;;;;;;5027608;28;20029;-50
2021/10/17 14:02:16;;;;;;;15.18;7.70;;;;;;;;;;5028305;28;20127;-50
2021/10/17 14:04:42;;;;;;;11.75;7.78;;;;;;;;;;5027833;28;20044;-49
2021/10/17 14:07:08;;;;;;;18.40;8.88;;;;;;;;;;5028308;28;20066;-50
2021/10/17 14:09:35;;;;;;;11.93;7.68;;;;;;;;;;5027711;28;20057;-50
2021/10/17 14:12:01;;;;;;;10.02;6.72;;;;;;;;;;5027813;28;20485;-50
2021/10/17 14:14:29;;;;;;;10.55;6.95;;;;;;;;;;5027683;28;20083;-52
2021/10/17 14:16:55;;;;;;;12.27;6.63;;;;;;;;;;5028186;28;21143;-51
2021/10/17 14:19:21;;;;;;;23.35;6.30;;;;;;;;;;5028013;28;20740;-50
2021/10/17 14:21:47;;;;;;;15.27;6.35;;;;;;;;;;5027943;28;20025;-51